Koosharem, UT (84744)

2:14 PM MDT on July 25, 2016 (GMT -0600)
APRSWXNET | | Change Station

Elev 7095 ft 38.40 °N, 111.66 °W | Updated 40 minutes ago

Clear
Clear
76 °F
Feels Like 77 °F
N
12
Wind Variable Wind from South
Gusts 0.0 mph

Today
High -- | Low -- °F
--% Chance of Precip.
Yesterday
High -- | Low -- °F
Precip. -- in
Pressure 30.01 in
Visibility 10.0 miles
Clouds Clear
Heat Index 77 °F
Dew Point 45 °F
Humidity 33%
Rainfall in
Snow Depth Not available.
6:23 AM 8:43 PM
Waning Gibbous, 63% visible
METAR KBCE 251953Z AUTO 26019G24KT 10SM CLR 24/06 A3038 RMK AO2 LTG DSNT NE RAB10E19 SLP162 P0000 T02440056
Pressure 30.01 in
Visibility 10.0 miles
Clouds Clear
Heat Index 77 °F
Dew Point 45 °F
Humidity 33%
Rainfall in
Snow Depth Not available.
6:23 AM 8:43 PM
Waning Gibbous, 63% visible
METAR KBCE 251953Z AUTO 26019G24KT 10SM CLR 24/06 A3038 RMK AO2 LTG DSNT NE RAB10E19 SLP162 P0000 T02440056

10-Day Weather Forecast

Almanac

Astronomy

Jul. 25, 2016 Rise Set
Actual Time
Civil Twilight
Nautical Twilight
Astronomical Twilight
Moon
Length of Visible Light
Length of Day
Tomorrow will be .
, % of the Moon is Illuminated

Today's Extremes

State Highs State Lows

Community

WunderPhotos

Upload Photos

1,927,405 photos uploaded!

WunderBlog® & News

Nearby

Air Quality

  Air Quality AQ Index Pollutant
Not available.

Snow Depth

Station Depth Elevation

Earthquake Activity

City Distance Mag. Time & Date
Minimum magnitude displayed is 2.5.

Coastal Water Temperatures

Place Temperature

Stations

Nearby Weather Stations

Station Location Temp. Windchill Dew Point Humidity Wind Precip. Elev Updated Type
                   

Watches & Warnings

There are currently no watches in effect.